Time;durP1;ratioP1;P1;durP2;ratioP2;P2;SDS_P1;SDS_P2;PMS_P1;PMS_P2;Temp;Humidity;BMP_temperature;BMP_pressure;BME280_temperature;BME280_humidity;BME280_pressure;Samples;Min_cycle;Max_cycle;Signal;HPM_P1;HPM_P2
2023/12/19 00:01:03;;;;;;;32.42;17.33;;;6.10;99.90;;;;;;5045994;28;20025;-80
2023/12/19 00:03:29;;;;;;;32.00;17.42;;;6.10;99.90;;;;;;5044530;28;20115;-80
2023/12/19 00:05:54;;;;;;;28.33;15.40;;;6.20;99.90;;;;;;5057534;28;20129;-79
2023/12/19 00:08:20;;;;;;;30.90;15.98;;;6.20;99.90;;;;;;5046062;28;20448;-80
2023/12/19 00:10:46;;;;;;;30.50;15.65;;;6.20;99.90;;;;;;5031381;28;20032;-80
2023/12/19 00:13:12;;;;;;;25.45;13.80;;;6.20;99.90;;;;;;5042718;28;20086;-80
2023/12/19 00:15:39;;;;;;;26.83;12.98;;;6.20;99.90;;;;;;5060322;28;20020;-80
2023/12/19 00:18:05;;;;;;;24.85;13.65;;;6.30;99.90;;;;;;5048138;28;20033;-80
2023/12/19 00:20:30;;;;;;;30.00;15.68;;;6.30;99.90;;;;;;5045627;28;20028;-80
2023/12/19 00:22:56;;;;;;;27.02;14.65;;;6.30;99.90;;;;;;5075782;28;20025;-80
2023/12/19 00:25:23;;;;;;;27.98;14.40;;;6.30;99.90;;;;;;5064665;28;20054;-79
2023/12/19 00:27:49;;;;;;;26.35;12.90;;;6.30;99.90;;;;;;5045791;28;20477;-80
2023/12/19 00:30:15;;;;;;;28.52;14.25;;;6.20;99.90;;;;;;5016479;28;20084;-79
2023/12/19 00:32:41;;;;;;;27.15;14.52;;;6.30;99.90;;;;;;5008453;28;20470;-80
2023/12/19 00:35:08;;;;;;;23.45;11.95;;;6.30;99.90;;;;;;5002315;28;20105;-80
2023/12/19 00:37:34;;;;;;;25.38;13.40;;;6.20;99.90;;;;;;5003838;28;20376;-80
2023/12/19 00:40:00;;;;;;;25.45;13.48;;;6.30;99.90;;;;;;5007255;28;20037;-79
2023/12/19 00:42:25;;;;;;;23.70;13.25;;;6.30;99.90;;;;;;5007765;28;20030;-79
2023/12/19 00:44:51;;;;;;;29.38;13.15;;;6.30;99.90;;;;;;5006130;28;20026;-80
2023/12/19 00:47:17;;;;;;;20.52;11.70;;;6.30;99.90;;;;;;4998064;28;20022;-79
2023/12/19 00:49:43;;;;;;;26.33;12.93;;;6.30;99.90;;;;;;5022151;28;20026;-79
2023/12/19 00:52:09;;;;;;;27.77;13.50;;;6.30;99.90;;;;;;5007501;28;20087;-79
2023/12/19 00:54:35;;;;;;;20.90;12.07;;;6.30;99.90;;;;;;5004220;28;20026;-80
2023/12/19 00:57:00;;;;;;;27.15;14.75;;;6.30;99.90;;;;;;5004596;28;20433;-79
2023/12/19 00:59:26;;;;;;;30.45;16.52;;;6.30;99.90;;;;;;5022419;28;20080;-79
2023/12/19 01:01:52;;;;;;;24.67;14.32;;;6.30;99.90;;;;;;5003777;28;20566;-80
2023/12/19 01:04:19;;;;;;;26.33;14.70;;;6.40;99.90;;;;;;5020635;28;20025;-79
2023/12/19 01:06:45;;;;;;;25.92;14.35;;;6.30;99.90;;;;;;5033518;28;20067;-80
2023/12/19 01:09:11;;;;;;;28.92;14.13;;;6.30;99.90;;;;;;5000388;28;20049;-81
2023/12/19 01:11:36;;;;;;;25.02;13.77;;;6.40;99.90;;;;;;4994953;28;20030;-80
2023/12/19 01:14:03;;;;;;;26.52;13.98;;;6.40;99.90;;;;;;5006448;28;20062;-81
2023/12/19 01:16:28;;;;;;;22.65;11.45;;;6.40;99.90;;;;;;5037813;28;20061;-80
2023/12/19 01:18:55;;;;;;;27.52;14.77;;;6.40;99.90;;;;;;5005274;28;20065;-80
2023/12/19 01:21:20;;;;;;;26.45;13.88;;;6.40;99.90;;;;;;5020381;28;20026;-81
2023/12/19 01:23:46;;;;;;;25.63;13.48;;;6.40;99.90;;;;;;4990484;28;20057;-80
2023/12/19 01:26:12;;;;;;;28.95;14.50;;;6.40;99.90;;;;;;5023269;28;20482;-80
2023/12/19 01:28:39;;;;;;;23.85;13.00;;;6.40;99.90;;;;;;5021643;28;20038;-82
2023/12/19 01:31:04;;;;;;;28.27;14.95;;;6.40;99.90;;;;;;5006472;28;20053;-82
2023/12/19 01:33:30;;;;;;;25.13;14.43;;;6.40;99.90;;;;;;5004440;28;20022;-81
2023/12/19 01:35:56;;;;;;;29.20;15.43;;;6.40;99.90;;;;;;5007684;28;20478;-82
2023/12/19 01:38:21;;;;;;;24.42;13.18;;;6.40;99.90;;;;;;5003394;28;20037;-81
2023/12/19 01:40:47;;;;;;;23.52;13.45;;;6.40;99.90;;;;;;4990544;28;20442;-81
2023/12/19 01:43:20;;;;;;;24.30;12.93;;;6.50;99.90;;;;;;5018899;28;20088;-81
2023/12/19 01:45:47;;;;;;;23.17;12.38;;;6.50;99.90;;;;;;5006902;28;20026;-79
2023/12/19 01:48:15;;;;;;;22.17;12.00;;;6.50;99.90;;;;;;5035289;28;20037;-80
2023/12/19 01:50:41;;;;;;;21.95;10.55;;;6.50;99.90;;;;;;5013062;28;20057;-80
2023/12/19 01:53:08;;;;;;;24.92;13.82;;;6.50;99.90;;;;;;5005927;28;20055;-80
2023/12/19 01:55:34;;;;;;;28.50;14.57;;;6.50;99.90;;;;;;5011295;28;20054;-80
2023/12/19 01:58:00;;;;;;;25.15;12.68;;;6.50;99.90;;;;;;5007661;28;20065;-80
2023/12/19 02:00:26;;;;;;;26.38;13.07;;;6.50;99.90;;;;;;5036386;28;20105;-79
2023/12/19 02:02:52;;;;;;;25.90;13.68;;;6.50;99.90;;;;;;5009965;28;20026;-81
2023/12/19 02:05:19;;;;;;;27.15;14.20;;;6.60;99.90;;;;;;5006693;28;20034;-80
2023/12/19 02:07:44;;;;;;;24.67;11.85;;;6.60;99.90;;;;;;5011386;28;20044;-81
2023/12/19 02:10:11;;;;;;;26.55;11.65;;;6.60;99.90;;;;;;5008471;28;20026;-80
2023/12/19 02:12:37;;;;;;;24.23;13.18;;;6.60;99.90;;;;;;5007384;28;20026;-80
2023/12/19 02:15:04;;;;;;;23.23;12.65;;;6.60;99.90;;;;;;5000182;28;20474;-80
2023/12/19 02:17:30;;;;;;;28.67;13.88;;;6.60;99.90;;;;;;5024059;28;20034;-81
2023/12/19 02:19:55;;;;;;;28.35;14.98;;;6.60;99.90;;;;;;5009717;28;20096;-80
2023/12/19 02:22:21;;;;;;;25.17;13.65;;;6.60;99.90;;;;;;5006699;28;20025;-81
2023/12/19 02:24:48;;;;;;;29.20;17.33;;;6.60;99.90;;;;;;5023648;28;20045;-79
2023/12/19 02:27:16;;;;;;;28.13;15.30;;;6.60;99.90;;;;;;5004419;28;20026;-80
2023/12/19 02:29:42;;;;;;;24.23;12.50;;;6.60;99.90;;;;;;5005105;28;20462;-80
2023/12/19 02:32:07;;;;;;;27.75;15.05;;;6.60;99.90;;;;;;5022773;28;20040;-81
2023/12/19 02:34:33;;;;;;;27.10;14.02;;;6.60;99.90;;;;;;5007857;28;20117;-80
2023/12/19 02:36:59;;;;;;;28.42;16.10;;;6.60;99.90;;;;;;5023044;28;20025;-80
2023/12/19 02:39:24;;;;;;;27.45;15.05;;;6.60;99.90;;;;;;5009317;28;20438;-80
2023/12/19 02:41:50;;;;;;;29.52;16.38;;;6.60;99.90;;;;;;5004709;28;20064;-81
2023/12/19 02:44:16;;;;;;;27.67;15.57;;;6.60;99.90;;;;;;5038902;28;20031;-80
2023/12/19 02:46:41;;;;;;;31.75;17.58;;;6.60;99.90;;;;;;5021048;28;20026;-80
2023/12/19 02:49:07;;;;;;;31.58;15.88;;;6.60;99.90;;;;;;5018597;28;20801;-80
2023/12/19 02:51:33;;;;;;;26.00;14.13;;;6.60;99.90;;;;;;5005596;28;20507;-80
2023/12/19 02:53:58;;;;;;;20.27;11.60;;;6.70;99.90;;;;;;5008169;28;20066;-81
2023/12/19 02:56:25;;;;;;;30.02;16.13;;;6.70;99.90;;;;;;5009509;28;20441;-80
2023/12/19 02:58:51;;;;;;;29.55;15.52;;;6.70;99.90;;;;;;5010670;28;20096;-81
2023/12/19 03:01:17;;;;;;;32.33;17.00;;;6.70;99.90;;;;;;5019698;28;20023;-80
2023/12/19 03:03:43;;;;;;;19.40;11.38;;;6.70;99.90;;;;;;5007931;28;20497;-80
2023/12/19 03:06:12;;;;;;;27.95;14.57;;;6.70;99.90;;;;;;5007968;28;20433;-81
2023/12/19 03:08:37;;;;;;;22.42;11.95;;;6.70;99.90;;;;;;5010011;28;20030;-82
2023/12/19 03:11:03;;;;;;;21.30;11.15;;;6.70;99.90;;;;;;5001156;28;20026;-81
2023/12/19 03:13:29;;;;;;;25.23;12.35;;;6.80;99.90;;;;;;4994608;28;20030;-81
2023/12/19 03:15:55;;;;;;;23.55;12.18;;;6.80;99.90;;;;;;5008626;28;20022;-81
2023/12/19 03:18:24;;;;;;;22.65;11.93;;;6.80;99.90;;;;;;5021960;28;20104;-81
2023/12/19 03:20:54;;;;;;;29.00;15.25;;;6.80;99.90;;;;;;5022392;28;20041;-81
2023/12/19 03:23:21;;;;;;;29.20;13.53;;;6.80;99.90;;;;;;5002880;28;20391;-82
2023/12/19 03:25:47;;;;;;;28.73;14.70;;;6.80;99.90;;;;;;5006893;28;20277;-81
2023/12/19 03:28:13;;;;;;;26.63;14.55;;;6.80;99.90;;;;;;5009783;28;20022;-81
2023/12/19 03:30:38;;;;;;;32.80;16.85;;;6.80;99.90;;;;;;5009112;28;20042;-81
2023/12/19 03:33:04;;;;;;;30.83;14.93;;;6.90;99.90;;;;;;5007866;28;20091;-81
2023/12/19 03:35:30;;;;;;;29.35;15.27;;;6.80;99.90;;;;;;5006764;28;20145;-80
2023/12/19 03:37:56;;;;;;;24.73;14.15;;;6.90;99.90;;;;;;4993511;28;20537;-80
2023/12/19 03:40:22;;;;;;;35.60;17.65;;;6.90;99.90;;;;;;4997897;28;20033;-81
2023/12/19 03:42:48;;;;;;;31.23;16.20;;;6.90;99.90;;;;;;5006616;28;20058;-81
2023/12/19 03:45:14;;;;;;;30.58;16.52;;;6.90;99.90;;;;;;5007103;28;20022;-81
2023/12/19 03:47:40;;;;;;;27.98;14.15;;;6.90;99.90;;;;;;5037599;28;20037;-80
2023/12/19 03:50:06;;;;;;;24.33;13.10;;;6.90;99.90;;;;;;5008967;28;20398;-81
2023/12/19 03:52:32;;;;;;;23.70;12.05;;;6.90;99.90;;;;;;5003928;28;20482;-81
2023/12/19 03:54:58;;;;;;;34.50;16.92;;;6.90;99.90;;;;;;5014064;28;20040;-81
2023/12/19 03:57:23;;;;;;;27.15;14.25;;;7.00;99.90;;;;;;5006438;28;20133;-80
2023/12/19 03:59:49;;;;;;;23.80;12.65;;;7.00;99.90;;;;;;5003117;28;20038;-80
2023/12/19 04:02:15;;;;;;;21.05;11.32;;;7.00;99.90;;;;;;5018099;28;20017;-80
2023/12/19 04:04:41;;;;;;;25.60;14.27;;;7.00;99.90;;;;;;5006851;28;20096;-80
2023/12/19 04:07:07;;;;;;;22.77;12.38;;;7.00;99.90;;;;;;5036883;28;20482;-81
2023/12/19 04:09:33;;;;;;;20.45;11.45;;;7.00;99.90;;;;;;5004318;28;20030;-79
2023/12/19 04:12:02;;;;;;;19.17;10.73;;;7.10;99.90;;;;;;5017214;28;20052;-80
2023/12/19 04:14:29;;;;;;;23.23;12.55;;;7.00;99.90;;;;;;5007711;28;20060;-81
2023/12/19 04:16:55;;;;;;;22.90;11.35;;;7.00;99.90;;;;;;5038076;28;20029;-81
2023/12/19 04:19:21;;;;;;;21.65;11.15;;;7.00;99.90;;;;;;5010359;28;20129;-80
2023/12/19 04:21:48;;;;;;;18.73;10.57;;;7.00;99.90;;;;;;5033435;28;20052;-80
2023/12/19 04:24:14;;;;;;;20.52;10.73;;;7.10;99.90;;;;;;5005736;28;20052;-81
2023/12/19 04:26:42;;;;;;;20.52;11.73;;;7.10;99.90;;;;;;5008763;28;20032;-80
2023/12/19 04:29:08;;;;;;;21.25;11.00;;;7.00;99.90;;;;;;5008323;28;20064;-79
2023/12/19 04:31:34;;;;;;;18.50;10.45;;;7.10;99.90;;;;;;5034680;28;20046;-81
2023/12/19 04:34:00;;;;;;;18.85;11.25;;;7.10;99.90;;;;;;5024401;28;20474;-80
2023/12/19 04:36:25;;;;;;;18.98;9.95;;;7.10;99.90;;;;;;5016571;28;20037;-81
2023/12/19 04:38:52;;;;;;;17.55;10.32;;;7.10;99.90;;;;;;5005691;28;20486;-80
2023/12/19 04:41:17;;;;;;;12.60;7.90;;;7.10;99.90;;;;;;5023426;28;20026;-81
2023/12/19 04:43:43;;;;;;;16.15;9.70;;;7.10;99.90;;;;;;5002758;28;20045;-79
2023/12/19 04:46:09;;;;;;;19.52;11.23;;;7.10;99.90;;;;;;5005651;28;20032;-80
2023/12/19 04:48:35;;;;;;;19.33;11.07;;;7.20;99.90;;;;;;5039488;28;20033;-80
2023/12/19 04:51:00;;;;;;;16.35;10.23;;;7.20;99.90;;;;;;5008476;28;20064;-81
2023/12/19 04:53:26;;;;;;;16.77;9.50;;;7.20;99.90;;;;;;5003829;28;20049;-80
2023/12/19 04:55:52;;;;;;;17.63;7.97;;;7.20;99.90;;;;;;5003359;28;20057;-82
2023/12/19 04:58:18;;;;;;;16.00;9.50;;;7.20;99.90;;;;;;5005777;28;20064;-82
2023/12/19 05:00:44;;;;;;;15.48;9.38;;;7.20;99.90;;;;;;5036785;28;20168;-81
2023/12/19 05:03:09;;;;;;;16.67;8.13;;;7.20;99.90;;;;;;5002551;28;20092;-80
2023/12/19 05:05:35;;;;;;;13.73;8.13;;;7.20;99.90;;;;;;5002991;28;20518;-81
2023/12/19 05:08:01;;;;;;;12.10;7.28;;;7.20;99.90;;;;;;5023260;28;20054;-82
2023/12/19 05:10:27;;;;;;;12.85;7.35;;;7.20;99.90;;;;;;5018653;28;20437;-81
2023/12/19 05:12:52;;;;;;;13.20;7.95;;;7.20;99.90;;;;;;5003095;28;20501;-80
2023/12/19 05:15:18;;;;;;;10.57;6.60;;;7.20;99.90;;;;;;4988402;28;20030;-80
2023/12/19 05:17:44;;;;;;;11.73;6.72;;;7.20;99.90;;;;;;5038026;28;20037;-81
2023/12/19 05:20:10;;;;;;;9.07;5.30;;;7.20;99.90;;;;;;5019777;28;20038;-81
2023/12/19 05:22:35;;;;;;;14.32;7.00;;;7.20;99.90;;;;;;5003175;28;20519;-79
2023/12/19 05:25:01;;;;;;;14.00;6.95;;;7.30;99.90;;;;;;4999975;28;20113;-81
2023/12/19 05:27:26;;;;;;;11.20;6.85;;;7.30;99.90;;;;;;4987371;28;20372;-82
2023/12/19 05:29:52;;;;;;;10.50;6.10;;;7.30;99.90;;;;;;5010609;28;20363;-81
2023/12/19 05:32:18;;;;;;;12.10;7.07;;;7.40;99.90;;;;;;5009135;28;20383;-81
2023/12/19 05:34:43;;;;;;;10.40;6.28;;;7.40;99.90;;;;;;5008232;28;20030;-81
2023/12/19 05:37:09;;;;;;;10.35;6.13;;;7.40;99.90;;;;;;5012358;28;20026;-81
2023/12/19 05:39:35;;;;;;;11.77;6.13;;;7.40;99.90;;;;;;5008541;28;20455;-82
2023/12/19 05:42:01;;;;;;;14.02;7.50;;;7.40;99.90;;;;;;5005802;28;20053;-82
2023/12/19 05:44:27;;;;;;;13.05;8.02;;;7.40;99.90;;;;;;5009455;28;20030;-82
2023/12/19 05:46:53;;;;;;;12.05;6.68;;;7.40;99.90;;;;;;5009521;28;20033;-81
2023/12/19 05:49:19;;;;;;;9.82;5.97;;;7.50;99.90;;;;;;5027671;28;20088;-82
2023/12/19 05:51:44;;;;;;;10.07;6.20;;;7.50;99.90;;;;;;5010090;28;20038;-83
2023/12/19 05:54:10;;;;;;;11.45;6.45;;;7.50;99.90;;;;;;5012946;28;20026;-82
2023/12/19 05:56:36;;;;;;;11.50;6.45;;;7.50;99.90;;;;;;5026544;28;20210;-81
2023/12/19 05:59:02;;;;;;;13.63;8.20;;;7.50;99.90;;;;;;5009838;28;20033;-82
2023/12/19 06:01:28;;;;;;;17.23;8.50;;;7.60;99.90;;;;;;5035281;28;20433;-82
2023/12/19 06:03:54;;;;;;;11.75;7.18;;;7.50;99.90;;;;;;5009438;28;20026;-81
2023/12/19 06:06:20;;;;;;;15.98;8.18;;;7.60;99.90;;;;;;5011427;28;20026;-83
2023/12/19 06:08:46;;;;;;;13.70;7.47;;;7.60;99.90;;;;;;5009530;28;20474;-82
2023/12/19 06:11:12;;;;;;;15.40;7.72;;;7.60;99.90;;;;;;5023156;28;20029;-82
2023/12/19 06:13:38;;;;;;;12.52;7.60;;;7.70;99.90;;;;;;5025189;28;20048;-81
2023/12/19 06:16:08;;;;;;;15.52;9.05;;;7.70;99.90;;;;;;4999588;28;20038;-83
2023/12/19 06:18:33;;;;;;;12.20;6.97;;;7.70;99.90;;;;;;5024339;28;20045;-82
2023/12/19 06:21:00;;;;;;;14.88;8.45;;;7.70;99.90;;;;;;5010729;28;20180;-81
2023/12/19 06:23:29;;;;;;;11.50;6.68;;;7.80;99.90;;;;;;5022966;28;20029;-83
2023/12/19 06:25:55;;;;;;;15.25;8.82;;;7.80;99.90;;;;;;5003411;28;20030;-82
2023/12/19 06:28:27;;;;;;;15.00;9.00;;;7.70;99.90;;;;;;4996793;28;20560;-81
2023/12/19 06:30:53;;;;;;;14.48;7.35;;;7.80;99.90;;;;;;4990109;28;20096;-80
2023/12/19 06:33:19;;;;;;;14.75;9.80;;;7.80;99.90;;;;;;4988843;28;20156;-79
2023/12/19 06:35:49;;;;;;;16.77;9.07;;;7.80;99.90;;;;;;5012355;28;20025;-80
2023/12/19 06:38:14;;;;;;;;;;;7.80;99.90;;;;;;5012109;28;20070;-80
2023/12/19 06:40:40;;;;;;;16.13;9.25;;;7.80;99.90;;;;;;4993977;28;20601;-80
2023/12/19 06:43:10;;;;;;;15.00;8.93;;;7.90;99.90;;;;;;5006004;28;20037;-81
2023/12/19 06:45:37;;;;;;;15.07;8.60;;;7.90;99.90;;;;;;4988321;28;20046;-81
2023/12/19 06:48:03;;;;;;;14.43;8.27;;;7.90;99.90;;;;;;5029324;28;20034;-80
2023/12/19 06:50:29;;;;;;;17.75;10.00;;;7.90;99.90;;;;;;5003725;28;20082;-82
2023/12/19 06:52:54;;;;;;;16.08;9.18;;;7.90;99.90;;;;;;4980670;28;20130;-80
2023/12/19 06:55:21;;;;;;;16.40;9.13;;;7.90;99.90;;;;;;4996386;28;20060;-78
2023/12/19 06:57:47;;;;;;;14.43;7.72;;;8.00;99.90;;;;;;5005037;28;20550;-81
2023/12/19 07:00:13;;;;;;;15.55;8.38;;;8.00;99.90;;;;;;4987089;28;20087;-79
2023/12/19 07:02:39;;;;;;;13.25;8.02;;;8.00;99.90;;;;;;5003888;28;20065;-81
2023/12/19 07:05:05;;;;;;;14.90;8.75;;;8.00;99.90;;;;;;4996859;28;20510;-80
2023/12/19 07:07:31;;;;;;;14.05;8.23;;;8.00;99.90;;;;;;5013151;28;20030;-81
2023/12/19 07:09:57;;;;;;;15.68;9.80;;;8.00;99.90;;;;;;5002363;28;20045;-81
2023/12/19 07:12:22;;;;;;;18.60;10.43;;;8.00;99.90;;;;;;4987467;28;20157;-81
2023/12/19 07:14:48;;;;;;;15.32;9.70;;;8.10;99.90;;;;;;5005032;28;20038;-81
2023/12/19 07:17:14;;;;;;;17.50;10.13;;;8.10;99.90;;;;;;4992617;28;20040;-81
2023/12/19 07:19:43;;;;;;;19.73;11.55;;;8.10;99.90;;;;;;4977319;28;20053;-80
2023/12/19 07:22:09;;;;;;;15.87;9.23;;;8.10;99.90;;;;;;4971298;28;20057;-82
2023/12/19 07:24:35;;;;;;;23.95;13.35;;;8.10;99.90;;;;;;4963353;28;20128;-80
2023/12/19 07:27:00;;;;;;;18.80;11.65;;;8.10;99.90;;;;;;4954079;28;20018;-81
2023/12/19 07:29:26;;;;;;;18.15;11.38;;;8.20;99.90;;;;;;4979311;28;21031;-80
2023/12/19 07:31:52;;;;;;;21.38;11.40;;;8.10;99.90;;;;;;4986101;28;20629;-80
2023/12/19 07:34:17;;;;;;;21.58;11.65;;;8.20;99.90;;;;;;4955087;28;20037;-80
2023/12/19 07:36:45;;;;;;;18.45;11.32;;;8.20;99.90;;;;;;4977839;28;20424;-81
2023/12/19 07:39:11;;;;;;;18.02;10.75;;;8.20;99.90;;;;;;4994775;28;20041;-82
2023/12/19 07:41:37;;;;;;;16.02;10.05;;;8.20;99.90;;;;;;4971102;28;20036;-81
2023/12/19 07:44:09;;;;;;;17.77;10.95;;;8.20;99.90;;;;;;4988150;28;20038;-79
2023/12/19 07:46:44;;;;;;;23.10;13.95;;;8.20;99.90;;;;;;4955488;28;20037;-79
2023/12/19 07:49:10;;;;;;;20.48;12.48;;;8.20;99.90;;;;;;4970220;28;20037;-81
2023/12/19 07:51:36;;;;;;;21.13;13.15;;;8.30;99.90;;;;;;4962121;28;20058;-80
2023/12/19 07:54:02;;;;;;;26.58;15.02;;;8.30;99.90;;;;;;4987189;28;20124;-81
2023/12/19 07:56:27;;;;;;;25.75;14.15;;;8.30;99.90;;;;;;4952785;28;20037;-80
2023/12/19 07:58:53;;;;;;;24.55;14.93;;;8.30;99.90;;;;;;4970699;28;20068;-80
2023/12/19 08:01:19;;;;;;;27.13;16.48;;;8.30;99.90;;;;;;4977755;28;20037;-81
2023/12/19 08:03:44;;;;;;;25.60;16.10;;;8.40;99.90;;;;;;4987001;28;20038;-81
2023/12/19 08:06:11;;;;;;;30.23;17.63;;;8.40;99.90;;;;;;4980259;28;20045;-80
2023/12/19 08:08:37;;;;;;;27.85;17.05;;;8.40;99.90;;;;;;4971062;28;20030;-81
2023/12/19 08:11:03;;;;;;;26.48;15.73;;;8.40;99.90;;;;;;4953046;28;20069;-81
2023/12/19 08:13:29;;;;;;;22.25;14.10;;;8.40;99.90;;;;;;4969047;28;20072;-81
2023/12/19 08:15:54;;;;;;;22.77;14.02;;;8.40;99.90;;;;;;4987889;28;20892;-82
2023/12/19 08:18:20;;;;;;;24.08;14.60;;;8.40;99.90;;;;;;4967400;28;20033;-82
2023/12/19 08:20:46;;;;;;;22.48;13.05;;;8.40;99.90;;;;;;5003382;28;20120;-81
2023/12/19 08:23:12;;;;;;;28.35;15.10;;;8.50;99.90;;;;;;4987532;28;20083;-80
2023/12/19 08:25:40;;;;;;;20.27;13.85;;;8.40;99.90;;;;;;4962324;28;20172;-81
2023/12/19 08:28:06;;;;;;;28.98;18.58;;;8.50;99.90;;;;;;4980227;28;20087;-80
2023/12/19 08:30:32;;;;;;;26.70;15.95;;;8.50;99.90;;;;;;4983050;28;20061;-80
2023/12/19 08:32:57;;;;;;;22.83;14.15;;;8.50;99.90;;;;;;4998716;28;20054;-79
2023/12/19 08:35:23;;;;;;;26.70;15.93;;;8.50;99.90;;;;;;4984754;28;21034;-81
2023/12/19 08:37:50;;;;;;;22.13;13.95;;;8.50;99.90;;;;;;4983840;28;20060;-81
2023/12/19 08:40:16;;;;;;;20.02;12.60;;;8.50;99.90;;;;;;4986450;28;20041;-80
2023/12/19 08:42:42;;;;;;;21.85;12.80;;;8.60;99.90;;;;;;4982275;28;20038;-80
2023/12/19 08:45:22;;;;;;;17.75;11.52;;;8.60;99.90;;;;;;4967774;28;20048;-80
2023/12/19 08:47:49;;;;;;;24.63;13.25;;;8.50;99.90;;;;;;4954802;28;20057;-81
2023/12/19 08:50:15;;;;;;;21.63;14.05;;;8.60;99.90;;;;;;4957931;28;20129;-79
2023/12/19 08:52:42;;;;;;;20.15;13.15;;;8.60;99.90;;;;;;4970883;28;20041;-82
2023/12/19 08:55:10;;;;;;;24.98;14.52;;;8.60;99.90;;;;;;4957936;28;20030;-82
2023/12/19 08:57:40;;;;;;;18.58;12.52;;;8.60;99.90;;;;;;4970920;28;20041;-81
2023/12/19 09:00:06;;;;;;;;;;;8.60;99.90;;;;;;4986746;28;20041;-81
2023/12/19 09:02:32;;;;;;;18.42;11.70;;;8.60;99.90;;;;;;4980137;28;19926;-80
2023/12/19 09:04:57;;;;;;;16.85;11.18;;;8.60;99.90;;;;;;4987068;28;20034;-82
2023/12/19 09:07:23;;;;;;;18.35;11.05;;;8.60;99.90;;;;;;4951673;28;20136;-82
2023/12/19 09:09:49;;;;;;;19.00;11.13;;;8.60;99.90;;;;;;4978772;28;20041;-81
2023/12/19 09:12:14;;;;;;;20.02;11.80;;;8.60;99.90;;;;;;4977957;28;20061;-81
2023/12/19 09:14:40;;;;;;;18.60;11.75;;;8.60;99.90;;;;;;4972908;28;20434;-82
2023/12/19 09:17:06;;;;;;;18.23;12.45;;;8.60;99.90;;;;;;4984213;28;20079;-82
2023/12/19 09:19:34;;;;;;;18.17;11.85;;;8.60;99.90;;;;;;4971026;28;20453;-80
2023/12/19 09:22:00;;;;;;;16.13;11.45;;;8.60;99.90;;;;;;4984128;28;20036;-82
2023/12/19 09:24:30;;;;;;;17.13;11.32;;;8.70;99.90;;;;;;4978757;28;20080;-83
2023/12/19 09:26:57;;;;;;;16.23;10.88;;;8.60;99.90;;;;;;4972154;28;20558;-82
2023/12/19 09:29:25;;;;;;;15.35;11.15;;;8.70;99.90;;;;;;4971965;28;20042;-83
2023/12/19 09:31:51;;;;;;;15.85;10.95;;;8.70;99.90;;;;;;4951878;28;20578;-83
2023/12/19 09:34:17;;;;;;;13.55;8.90;;;8.70;99.90;;;;;;4972861;28;20041;-83
2023/12/19 09:36:44;;;;;;;12.52;9.05;;;8.70;99.90;;;;;;4954510;28;20038;-82
2023/12/19 09:39:11;;;;;;;14.23;9.63;;;8.70;99.90;;;;;;4969081;28;20048;-81
2023/12/19 09:41:37;;;;;;;9.90;6.63;;;8.70;99.90;;;;;;4987943;28;20026;-82
2023/12/19 09:44:03;;;;;;;13.18;8.73;;;8.70;99.90;;;;;;4990188;28;20453;-82
2023/12/19 09:46:33;;;;;;;11.77;7.57;;;8.70;99.90;;;;;;4989476;28;20030;-81
2023/12/19 09:49:00;;;;;;;8.75;5.75;;;8.70;99.90;;;;;;4970822;28;20091;-80
2023/12/19 09:51:29;;;;;;;8.77;6.60;;;8.70;99.90;;;;;;4984388;28;20038;-83
2023/12/19 09:53:55;;;;;;;10.60;6.53;;;8.70;99.90;;;;;;4988173;28;20410;-82
2023/12/19 09:56:22;;;;;;;7.72;5.65;;;8.70;99.90;;;;;;5007075;28;20065;-81
2023/12/19 09:58:49;;;;;;;8.45;4.90;;;8.70;99.90;;;;;;4993869;28;20050;-83
2023/12/19 10:01:18;;;;;;;9.35;6.57;;;8.70;99.90;;;;;;4998104;28;20113;-83
2023/12/19 10:03:44;;;;;;;6.03;4.35;;;8.80;99.90;;;;;;4966354;28;20044;-79
2023/12/19 10:06:10;;;;;;;10.73;7.07;;;8.70;99.90;;;;;;4980801;28;20686;-81
2023/12/19 10:08:42;;;;;;;11.48;7.53;;;8.70;99.90;;;;;;4968060;28;20092;-81
2023/12/19 10:11:09;;;;;;;8.82;6.15;;;8.80;99.90;;;;;;4982809;28;20029;-82
2023/12/19 10:13:38;;;;;;;9.23;6.10;;;8.80;99.90;;;;;;5006067;28;20038;-81
2023/12/19 10:16:08;;;;;;;12.55;8.43;;;8.80;99.90;;;;;;4974187;28;21760;-81
2023/12/19 10:18:39;;;;;;;10.27;7.45;;;8.80;99.90;;;;;;4987135;28;20172;-82
2023/12/19 10:21:11;;;;;;;11.52;6.03;;;8.80;99.90;;;;;;4990435;28;20029;-82
2023/12/19 10:23:40;;;;;;;8.73;5.18;;;8.80;99.90;;;;;;4984269;28;20096;-82
2023/12/19 10:26:07;;;;;;;8.30;5.68;;;8.90;99.90;;;;;;4974782;28;20029;-82
2023/12/19 10:28:33;;;;;;;7.35;5.22;;;8.90;99.90;;;;;;4989182;28;20490;-82
2023/12/19 10:31:18;;;;;;;7.88;4.93;;;8.90;99.90;;;;;;4973058;28;20037;-81
2023/12/19 10:33:45;;;;;;;6.85;5.00;;;8.80;99.90;;;;;;4985653;28;20065;-79
2023/12/19 10:36:28;;;;;;;8.35;5.60;;;8.90;99.90;;;;;;4987625;28;20385;-79
2023/12/19 10:38:55;;;;;;;6.15;4.50;;;8.90;99.90;;;;;;4980070;28;20100;-80
2023/12/19 10:41:24;;;;;;;6.93;4.25;;;8.90;99.90;;;;;;4963721;28;20034;-81
2023/12/19 10:43:52;;;;;;;8.73;6.00;;;8.90;99.90;;;;;;4974853;28;20034;-79
2023/12/19 10:46:24;;;;;;;8.70;6.03;;;8.90;99.90;;;;;;4987873;28;20068;-81
2023/12/19 10:48:50;;;;;;;7.10;4.90;;;8.90;99.90;;;;;;4969521;28;20042;-83
2023/12/19 10:51:28;;;;;;;6.88;4.60;;;8.90;99.90;;;;;;4971493;28;20085;-81
2023/12/19 10:54:00;;;;;;;7.57;4.18;;;8.90;99.90;;;;;;4985316;28;20929;-81
2023/12/19 10:56:37;;;;;;;8.07;5.45;;;8.90;99.90;;;;;;4971322;28;20057;-80
2023/12/19 10:59:07;;;;;;;6.50;4.53;;;9.00;99.90;;;;;;4983846;28;20045;-81
2023/12/19 11:01:40;;;;;;;9.25;5.28;;;8.90;99.90;;;;;;4980616;28;20096;-80
2023/12/19 11:04:21;;;;;;;7.80;5.35;;;8.90;99.90;;;;;;4971978;28;20120;-80
2023/12/19 11:06:54;;;;;;;6.57;4.80;;;8.90;99.90;;;;;;4972916;28;20170;-79
2023/12/19 11:09:24;;;;;;;6.68;4.45;;;9.00;99.90;;;;;;4968859;28;20654;-80
2023/12/19 11:11:51;;;;;;;5.22;2.97;;;9.00;99.90;;;;;;4985017;28;20140;-80
2023/12/19 11:14:22;;;;;;;6.50;3.50;;;9.00;99.90;;;;;;4994635;28;20309;-80
2023/12/19 11:17:09;;;;;;;3.70;2.40;;;8.90;99.90;;;;;;4970830;28;20042;-80
2023/12/19 11:19:50;;;;;;;6.45;3.97;;;9.00;99.90;;;;;;4986163;28;20053;-80
2023/12/19 11:22:36;;;;;;;5.47;3.67;;;9.00;99.90;;;;;;4970701;28;20034;-82
2023/12/19 11:25:12;;;;;;;5.45;3.38;;;9.00;99.90;;;;;;4971256;28;21344;-80
2023/12/19 11:27:42;;;;;;;7.18;5.18;;;9.00;99.90;;;;;;4974707;28;20048;-80
2023/12/19 11:30:32;;;;;;;4.70;2.85;;;9.00;99.90;;;;;;4963442;28;20727;-80
2023/12/19 11:32:58;;;;;;;;;;;9.00;99.90;;;;;;4968773;28;20069;-80
2023/12/19 11:35:28;;;;;;;3.85;2.22;;;9.00;99.90;;;;;;4987024;28;19990;-80
2023/12/19 11:38:13;;;;;;;4.10;2.63;;;9.00;99.90;;;;;;4983194;28;20033;-78
2023/12/19 11:40:45;;;;;;;2.92;1.33;;;9.00;99.90;;;;;;4971285;28;20045;-79
2023/12/19 11:43:31;;;;;;;3.08;1.50;;;9.00;99.90;;;;;;4984769;28;21748;-79
2023/12/19 11:46:03;;;;;;;3.45;1.75;;;9.00;99.90;;;;;;4956758;28;20554;-80
2023/12/19 11:48:40;;;;;;;3.83;2.10;;;9.00;99.90;;;;;;4960649;28;20155;-79
2023/12/19 11:51:10;;;;;;;3.78;2.28;;;9.00;99.90;;;;;;4987400;28;20113;-81
2023/12/19 11:53:40;;;;;;;4.97;2.33;;;9.00;99.90;;;;;;4983079;28;20124;-80
2023/12/19 11:56:08;;;;;;;6.53;3.10;;;9.00;99.90;;;;;;4967684;28;20030;-81
2023/12/19 11:58:35;;;;;;;4.13;3.35;;;9.00;99.90;;;;;;4954300;28;20041;-80
2023/12/19 12:01:02;;;;;;;5.75;3.20;;;9.10;99.90;;;;;;4963535;28;20030;-80
2023/12/19 12:03:28;;;;;;;4.07;2.63;;;9.10;99.90;;;;;;4969693;28;20486;-81
2023/12/19 12:05:55;;;;;;;4.50;2.47;;;9.10;99.90;;;;;;4967164;28;20040;-80
2023/12/19 12:08:21;;;;;;;3.50;2.47;;;9.10;99.90;;;;;;4976563;28;20379;-80
2023/12/19 12:11:04;;;;;;;3.65;1.92;;;9.10;99.90;;;;;;4962583;28;20432;-80
2023/12/19 12:13:32;;;;;;;3.25;1.73;;;9.10;99.90;;;;;;4975931;28;20034;-79
2023/12/19 12:15:58;;;;;;;3.97;2.40;;;9.10;99.90;;;;;;4955105;28;20706;-81
2023/12/19 12:18:30;;;;;;;2.58;1.35;;;9.10;99.90;;;;;;4995145;28;20060;-82
2023/12/19 12:21:08;;;;;;;3.35;2.33;;;9.10;99.90;;;;;;4988846;28;20153;-80
2023/12/19 12:23:35;;;;;;;2.97;2.03;;;9.10;99.90;;;;;;4962973;28;20033;-80
2023/12/19 12:26:01;;;;;;;2.72;1.42;;;9.10;99.90;;;;;;4966632;28;20126;-82
2023/12/19 12:28:27;;;;;;;2.50;1.17;;;9.10;99.90;;;;;;4970981;28;20068;-80
2023/12/19 12:30:57;;;;;;;3.10;1.40;;;9.10;99.90;;;;;;4992296;28;20060;-79
2023/12/19 12:33:27;;;;;;;2.22;1.00;;;9.10;99.90;;;;;;4997855;28;20398;-79
2023/12/19 12:35:54;;;;;;;2.58;0.98;;;9.10;99.90;;;;;;5021687;28;20047;-80
2023/12/19 12:38:22;;;;;;;2.55;1.17;;;9.10;99.90;;;;;;5010439;28;20069;-81
2023/12/19 12:40:54;;;;;;;2.25;1.00;;;9.10;99.90;;;;;;5012398;28;20773;-81
2023/12/19 12:43:33;;;;;;;3.05;1.80;;;9.10;99.90;;;;;;5007783;28;20074;-80